Time;durP1;ratioP1;P1;durP2;ratioP2;P2;SDS_P1;SDS_P2;PMS_P1;PMS_P2;Temp;Humidity;BMP_temperature;BMP_pressure;BME280_temperature;BME280_humidity;BME280_pressure;Samples;Min_cycle;Max_cycle;Signal;HPM_P1;HPM_P2
2022/05/24 00:00:46;;;;;;;2.17;1.20;;;;;;;16.56;100.00;97084.28;5116805;28;20220;-74
2022/05/24 00:03:12;;;;;;;1.50;1.40;;;;;;;16.49;100.00;97083.28;5116571;28;20289;-73
2022/05/24 00:05:40;;;;;;;1.30;1.20;;;;;;;16.41;100.00;97077.94;5116508;28;20206;-75
2022/05/24 00:08:07;;;;;;;1.43;1.30;;;;;;;16.33;100.00;97087.78;5116489;28;20245;-73
2022/05/24 00:10:35;;;;;;;1.33;1.23;;;;;;;16.35;100.00;97085.75;5116500;28;20214;-73
2022/05/24 00:13:02;;;;;;;1.47;1.30;;;;;;;16.30;100.00;97104.09;5116828;28;20217;-73
2022/05/24 00:15:31;;;;;;;2.47;1.40;;;;;;;16.25;100.00;97093.94;5116442;28;20675;-73
2022/05/24 00:18:01;;;;;;;1.50;1.40;;;;;;;16.23;100.00;97101.28;5116655;28;20214;-73
2022/05/24 00:20:30;;;;;;;1.47;1.37;;;;;;;16.20;100.00;97101.59;5106579;28;20211;-73
2022/05/24 00:22:57;;;;;;;2.03;1.60;;;;;;;16.14;100.00;97104.06;5104763;28;20210;-74
2022/05/24 00:25:23;;;;;;;2.43;1.73;;;;;;;16.10;100.00;97100.91;5106117;28;20213;-74
2022/05/24 00:27:50;;;;;;;3.00;2.13;;;;;;;15.98;100.00;97098.72;5116406;28;20233;-70
2022/05/24 00:30:17;;;;;;;2.00;1.90;;;;;;;15.91;100.00;97103.06;5107859;28;20213;-71
2022/05/24 00:32:46;;;;;;;2.80;2.27;;;;;;;15.84;100.00;97094.06;5106079;28;20226;-69
2022/05/24 00:35:12;;;;;;;2.30;2.10;;;;;;;15.81;100.00;97096.19;5109986;28;20221;-68
2022/05/24 00:37:40;;;;;;;2.30;2.10;;;;;;;15.76;100.00;97096.66;5109723;28;20212;-69
2022/05/24 00:40:10;;;;;;;2.37;2.10;;;;;;;15.68;100.00;97096.66;5108093;28;20584;-69
2022/05/24 00:42:38;;;;;;;2.83;2.20;;;;;;;15.69;100.00;97094.81;5106173;28;20601;-69
2022/05/24 00:45:11;;;;;;;2.10;2.00;;;;;;;15.72;100.00;97094.50;5106243;28;20218;-69
2022/05/24 00:47:40;;;;;;;2.60;2.40;;;;;;;15.68;100.00;97091.34;5114337;28;20249;-69
2022/05/24 00:50:11;;;;;;;2.47;2.27;;;;;;;15.67;100.00;97089.66;5115777;28;20220;-69
2022/05/24 00:52:46;;;;;;;2.43;2.23;;;;;;;15.62;100.00;97085.81;5115704;28;20217;-70
2022/05/24 00:55:15;;;;;;;2.50;2.30;;;;;;;15.63;100.00;97087.50;5115667;28;20685;-69
2022/05/24 00:57:51;;;;;;;4.77;2.60;;;;;;;15.64;100.00;97078.50;5115926;28;20643;-69
2022/05/24 01:00:21;;;;;;;2.50;2.30;;;;;;;15.63;100.00;97077.66;5105497;28;20213;-70
2022/05/24 01:02:49;;;;;;;2.73;2.53;;;;;;;15.64;100.00;97073.19;5101180;28;20275;-69
2022/05/24 01:05:19;;;;;;;2.97;2.77;;;;;;;15.64;100.00;97063.34;5101264;28;20214;-69
2022/05/24 01:07:45;;;;;;;3.30;3.00;;;;;;;15.65;100.00;97077.50;5104096;28;20690;-71
2022/05/24 01:10:16;;;;;;;3.03;2.70;;;;;;;15.72;100.00;97081.19;5105021;28;20221;-70
2022/05/24 01:12:47;;;;;;;3.20;2.90;;;;;;;15.75;100.00;97096.81;5101816;28;20221;-70
2022/05/24 01:15:16;;;;;;;3.63;2.73;;;;;;;15.78;100.00;97091.19;5100098;28;20214;-70
2022/05/24 01:17:44;;;;;;;4.10;3.00;;;;;;;15.84;100.00;97095.88;5105589;28;20213;-70
2022/05/24 01:20:13;;;;;;;3.10;2.60;;;;;;;15.86;100.00;97088.53;5103676;28;20575;-70
2022/05/24 01:23:18;;;;;;;3.83;2.80;;;;;;;15.87;100.00;97090.19;5101503;28;20242;-70
2022/05/24 01:25:56;;;;;;;3.07;2.77;;;;;;;15.90;100.00;97077.41;5100192;28;20218;-70
2022/05/24 01:28:27;;;;;;;3.27;2.90;;;;;;;15.86;100.00;97081.38;5105639;28;20252;-70
2022/05/24 01:30:56;;;;;;;3.23;2.80;;;;;;;15.85;100.00;97076.22;5108856;28;20214;-71
2022/05/24 01:36:13;;;;;;;2.73;2.53;;;;;;;15.74;100.00;97079.19;5114440;28;20221;-70
2022/05/24 01:38:44;;;;;;;3.00;2.80;;;;;;;15.64;100.00;97067.84;5114926;28;20675;-70
2022/05/24 01:41:14;;;;;;;3.10;2.90;;;;;;;15.52;100.00;97075.28;5112977;28;20221;-70
2022/05/24 01:43:43;;;;;;;3.20;2.90;;;;;;;15.45;100.00;97078.78;5114804;28;20245;-71
2022/05/24 01:46:12;;;;;;;3.40;3.10;;;;;;;15.41;100.00;97077.44;5114615;28;20259;-70
2022/05/24 01:48:43;;;;;;;3.07;2.77;;;;;;;15.37;100.00;97076.06;5114841;28;20259;-70
2022/05/24 01:51:12;;;;;;;4.03;3.67;;;;;;;15.39;100.00;97060.78;5098733;28;20217;-70
2022/05/24 01:53:43;;;;;;;2.90;2.70;;;;;;;15.44;100.00;97061.13;5102505;28;20258;-70
2022/05/24 01:56:15;;;;;;;3.90;3.50;;;;;;;15.41;100.00;97061.47;5100994;28;20210;-71
2022/05/24 01:58:47;;;;;;;3.90;3.60;;;;;;;15.32;100.00;97057.06;5101974;28;20214;-70
2022/05/24 02:01:24;;;;;;;4.00;3.70;;;;;;;15.24;100.00;97059.69;5104287;28;20701;-70
2022/05/24 02:03:51;;;;;;;4.30;3.50;;;;;;;15.15;100.00;97050.03;5105667;28;20213;-70
2022/05/24 02:06:20;;;;;;;4.10;3.80;;;;;;;15.11;100.00;97049.50;5112539;28;20217;-70
2022/05/24 02:08:46;;;;;;;4.40;3.67;;;;;;;15.02;100.00;97039.00;5114329;28;20245;-71
2022/05/24 02:11:14;;;;;;;3.77;3.47;;;;;;;14.94;100.00;97046.91;5114368;28;20224;-71
2022/05/24 02:13:45;;;;;;;3.73;3.43;;;;;;;14.83;100.00;97050.69;5114510;28;20218;-70
2022/05/24 02:16:16;;;;;;;5.00;3.47;;;;;;;14.77;100.00;97055.78;5114154;28;20571;-70
2022/05/24 02:18:45;;;;;;;3.60;3.30;;;;;;;14.72;100.00;97066.09;5098207;28;20583;-71
2022/05/24 02:21:12;;;;;;;3.50;3.20;;;;;;;14.69;100.00;97069.91;5102178;28;20226;-71
2022/05/24 02:23:41;;;;;;;3.80;3.40;;;;;;;14.64;100.00;97066.03;5100320;28;20222;-71
2022/05/24 02:26:10;;;;;;;4.43;3.57;;;;;;;14.61;100.00;97061.03;5100555;28;20220;-71
2022/05/24 02:28:37;;;;;;;4.40;4.00;;;;;;;14.55;100.00;97057.16;5103900;28;20251;-71
2022/05/24 02:31:06;;;;;;;4.07;3.77;;;;;;;14.58;100.00;97056.00;5103671;28;20225;-71
2022/05/24 02:33:33;;;;;;;4.90;4.10;;;;;;;14.54;100.00;97054.69;5112014;28;20693;-71
2022/05/24 02:36:00;;;;;;;5.03;3.97;;;;;;;14.54;100.00;97046.69;5113835;28;20217;-71
2022/05/24 02:38:28;;;;;;;4.93;4.40;;;;;;;14.53;100.00;97050.31;5113989;28;20208;-71
2022/05/24 02:43:39;;;;;;;5.40;4.90;;;;;;;14.52;100.00;97044.19;5113599;28;20610;-71
2022/05/24 02:46:08;;;;;;;5.60;5.10;;;;;;;14.54;100.00;97042.19;5113623;28;20219;-71
2022/05/24 02:48:35;;;;;;;5.63;5.13;;;;;;;14.54;100.00;97041.38;5113561;28;20344;-72
2022/05/24 02:51:01;;;;;;;6.13;4.90;;;;;;;14.54;100.00;97028.09;5114036;28;20213;-72
2022/05/24 02:53:28;;;;;;;4.93;4.43;;;;;;;14.58;100.00;97018.78;5113803;28;20212;-72
2022/05/24 02:55:54;;;;;;;4.30;4.00;;;;;;;14.63;100.00;97021.81;5113143;28;20587;-72
2022/05/24 02:58:21;;;;;;;5.40;5.00;;;;;;;14.66;100.00;97024.19;5112567;28;20220;-72
2022/05/24 03:00:47;;;;;;;4.73;4.33;;;;;;;14.72;100.00;97026.19;5112596;28;20220;-72
2022/05/24 03:03:15;;;;;;;4.50;4.10;;;;;;;14.76;100.00;97023.06;5113438;28;20209;-72
2022/05/24 03:05:42;;;;;;;5.30;4.80;;;;;;;14.78;100.00;97023.72;5113369;28;20227;-73
2022/05/24 03:10:52;;;;;;;4.60;4.20;;;;;;;14.83;100.00;97028.56;5105808;28;20292;-73
2022/05/24 03:16:09;;;;;;;4.90;4.50;;;;;;;14.78;100.00;97036.22;5112937;28;20712;-73
2022/05/24 03:18:37;;;;;;;4.67;4.27;;;;;;;14.78;100.00;97042.34;5113008;28;20231;-73
2022/05/24 03:21:04;;;;;;;5.20;4.70;;;;;;;14.75;100.00;97031.19;5113096;28;20687;-73
2022/05/24 03:23:30;;;;;;;5.00;4.50;;;;;;;14.75;100.00;97031.19;5113306;28;20225;-73
2022/05/24 03:25:57;;;;;;;5.10;4.60;;;;;;;14.73;100.00;97041.16;5111287;28;20692;-74
2022/05/24 03:28:23;;;;;;;6.17;5.60;;;;;;;14.76;100.00;97043.50;5116929;28;20233;-73
2022/05/24 03:30:50;;;;;;;6.10;5.50;;;;;;;14.80;100.00;97050.19;5111242;28;20219;-74
2022/05/24 03:33:18;;;;;;;6.30;5.70;;;;;;;14.82;100.00;97048.19;5108697;28;20212;-73
2022/05/24 03:35:46;;;;;;;5.90;5.40;;;;;;;14.88;100.00;97047.53;5107932;28;20216;-74
2022/05/24 03:38:12;;;;;;;7.17;6.47;;;;;;;14.94;100.00;97057.56;5111028;28;20290;-74
2022/05/24 03:40:39;;;;;;;7.70;7.00;;;;;;;15.00;100.00;97056.91;5111111;28;20212;-74
2022/05/24 03:43:11;;;;;;;6.80;6.20;;;;;;;15.07;100.00;97052.63;5108236;28;20236;-74
2022/05/24 03:45:38;;;;;;;6.63;6.03;;;;;;;15.14;100.00;97061.63;5108280;28;20224;-74
2022/05/24 03:48:06;;;;;;;5.60;5.10;;;;;;;15.15;100.00;97052.69;5110549;28;20675;-73
2022/05/24 03:50:33;;;;;;;5.27;4.77;;;;;;;15.15;100.00;97055.34;5110883;28;20288;-73
2022/05/24 03:53:01;;;;;;;5.20;4.70;;;;;;;15.17;100.00;97064.00;5105853;28;20290;-75
2022/05/24 03:55:28;;;;;;;5.20;4.70;;;;;;;15.17;100.00;97053.34;5107953;28;20627;-74
2022/05/24 03:58:03;;;;;;;4.67;4.23;;;;;;;15.18;100.00;97044.38;5110426;28;20710;-74
2022/05/24 04:00:34;;;;;;;5.40;5.00;;;;;;;15.19;100.00;97052.19;5110510;28;20306;-74
2022/05/24 04:03:01;;;;;;;5.77;5.27;;;;;;;15.17;100.00;97054.19;5101069;28;20693;-74
2022/05/24 04:05:29;;;;;;;5.67;5.17;;;;;;;15.20;100.00;97064.50;5111855;28;20212;-74
2022/05/24 04:07:56;;;;;;;5.37;4.87;;;;;;;15.22;100.00;97059.84;5116893;28;20610;-75
2022/05/24 04:10:24;;;;;;;4.80;4.30;;;;;;;15.23;100.00;97060.69;5116629;28;20237;-75
2022/05/24 04:12:51;;;;;;;4.77;4.37;;;;;;;15.22;100.00;97057.19;5116403;28;20218;-74
2022/05/24 04:15:19;;;;;;;5.23;4.83;;;;;;;15.23;100.00;97063.34;5116397;28;20217;-74
2022/05/24 04:17:46;;;;;;;5.43;4.57;;;;;;;15.26;100.00;97076.31;5114664;28;20679;-75
2022/05/24 04:20:15;;;;;;;5.13;4.63;;;;;;;15.28;100.00;97066.38;5116294;28;20217;-74
2022/05/24 04:22:42;;;;;;;4.70;4.30;;;;;;;15.28;100.00;97061.06;5116593;28;20229;-74
2022/05/24 04:25:09;;;;;;;5.13;4.70;;;;;;;15.25;100.00;97045.38;5115902;28;20214;-74
2022/05/24 04:27:37;;;;;;;4.80;4.40;;;;;;;15.20;100.00;97047.69;5116378;28;20209;-74
2022/05/24 04:30:04;;;;;;;5.60;5.10;;;;;;;15.16;100.00;97078.31;5109570;28;20244;-74
2022/05/24 04:32:30;;;;;;;5.23;4.73;;;;;;;15.20;100.00;97082.28;5106111;28;20220;-75
2022/05/24 04:34:57;;;;;;;4.73;4.33;;;;;;;15.23;100.00;97079.31;5108354;28;20769;-74
2022/05/24 04:37:24;;;;;;;4.63;4.23;;;;;;;15.23;100.00;97085.50;5110158;28;20217;-73
2022/05/24 04:39:50;;;;;;;4.83;4.43;;;;;;;15.26;100.00;97085.16;5109851;28;20224;-74
2022/05/24 04:42:19;;;;;;;4.70;4.30;;;;;;;15.46;100.00;97080.44;5106074;28;20603;-74
2022/05/24 04:44:49;;;;;;;4.77;4.37;;;;;;;15.69;100.00;97082.34;5106471;28;20609;-75
2022/05/24 04:47:16;;;;;;;5.10;4.60;;;;;;;15.83;100.00;97096.88;5109869;28;20217;-76
2022/05/24 04:49:44;;;;;;;4.63;4.27;;;;;;;15.91;100.00;97110.19;5109362;28;20254;-75
2022/05/24 04:52:12;;;;;;;4.50;4.20;;;;;;;15.91;100.00;97107.53;5105999;28;20211;-74
2022/05/24 04:54:40;;;;;;;4.10;3.67;;;;;;;15.88;100.00;97108.69;5108277;28;20214;-74
2022/05/24 04:57:06;;;;;;;4.13;3.80;;;;;;;15.84;100.00;97099.38;5109779;28;20605;-75
2022/05/24 04:59:33;;;;;;;4.80;4.00;;;;;;;15.84;100.00;97122.50;5109215;28;20218;-74
2022/05/24 05:02:01;;;;;;;5.07;4.50;;;;;;;15.83;100.00;97128.84;5105544;28;20698;-74
2022/05/24 05:04:28;;;;;;;4.50;4.10;;;;;;;15.86;100.00;97128.50;5108184;28;20221;-74
2022/05/24 05:06:54;;;;;;;4.53;4.10;;;;;;;15.88;100.00;97127.34;5109122;28;20691;-73
2022/05/24 05:09:21;;;;;;;3.90;3.60;;;;;;;15.90;100.00;97125.38;5108487;28;20230;-75
2022/05/24 05:11:48;;;;;;;3.60;3.30;;;;;;;15.93;100.00;97121.53;5104625;28;20577;-74
2022/05/24 05:14:14;;;;;;;4.10;3.70;;;;;;;16.00;100.00;97114.56;5107415;28;20214;-73
2022/05/24 05:16:41;;;;;;;4.60;4.20;;;;;;;16.10;100.00;97114.22;5109125;28;20240;-74
2022/05/24 05:19:12;;;;;;;4.93;4.53;;;;;;;16.20;100.00;97120.25;5108980;28;20224;-74
2022/05/24 05:21:41;;;;;;;4.90;4.07;;;;;;;16.29;100.00;97118.44;5105171;28;20240;-74
2022/05/24 05:24:08;;;;;;;4.30;4.00;;;;;;;16.37;100.00;97113.09;5103044;28;20214;-74
2022/05/24 05:26:35;;;;;;;4.90;4.50;;;;;;;16.42;100.00;97111.63;5101521;28;20219;-74
2022/05/24 05:29:02;;;;;;;4.67;4.27;;;;;;;16.42;100.00;97124.97;5101715;28;20237;-73
2022/05/24 05:31:27;;;;;;;5.30;4.80;;;;;;;16.48;100.00;97137.66;5115140;28;20218;-73
2022/05/24 05:33:54;;;;;;;4.10;3.70;;;;;;;16.54;100.00;97139.66;5114847;28;20210;-73
2022/05/24 05:36:23;;;;;;;4.40;3.90;;;;;;;16.64;100.00;97150.16;5113436;28;20244;-73
2022/05/24 05:38:51;;;;;;;3.70;3.40;;;;;;;16.67;100.00;97150.66;5115037;28;20668;-74
2022/05/24 05:41:19;;;;;;;4.13;3.73;;;;;;;17.17;100.00;97148.56;5115103;28;20217;-74
2022/05/24 05:43:47;;;;;;;3.40;3.10;;;;;;;17.84;100.00;97149.84;5114762;28;20242;-74
2022/05/24 05:46:14;;;;;;;2.77;2.50;;;;;;;17.94;100.00;97148.66;5115024;28;20237;-74
2022/05/24 05:48:42;;;;;;;2.20;2.00;;;;;;;17.74;100.00;97155.41;5114752;28;20583;-74
2022/05/24 05:51:10;;;;;;;2.70;2.50;;;;;;;17.58;100.00;97166.19;5114635;28;20583;-73
2022/05/24 05:53:38;;;;;;;2.73;2.40;;;;;;;17.47;100.00;97155.88;5114734;28;20206;-73
2022/05/24 05:56:08;;;;;;;2.60;2.40;;;;;;;17.31;100.00;97161.22;5114508;28;20705;-74
2022/05/24 05:58:35;;;;;;;2.73;2.53;;;;;;;17.24;100.00;97157.56;5114906;28;20206;-73
2022/05/24 06:01:02;;;;;;;2.90;2.70;;;;;;;17.17;100.00;97164.59;5114450;28;20217;-74
2022/05/24 06:03:30;;;;;;;3.80;3.50;;;;;;;17.01;100.00;97164.63;5112874;28;20209;-74
2022/05/24 06:06:00;;;;;;;3.47;3.10;;;;;;;16.84;100.00;97163.00;5114497;28;20214;-74
2022/05/24 06:08:26;;;;;;;2.30;2.10;;;;;;;16.79;100.00;97162.66;5114411;28;20206;-73
2022/05/24 06:10:54;;;;;;;2.30;1.87;;;;;;;17.68;100.00;97161.47;5114235;28;20240;-73
2022/05/24 06:13:21;;;;;;;3.63;1.77;;;;;;;19.01;100.00;97160.94;5114265;28;20332;-73
2022/05/24 06:15:50;;;;;;;3.07;1.63;;;;;;;20.32;98.91;97164.47;5114441;28;20214;-73
2022/05/24 06:18:16;;;;;;;3.77;1.60;;;;;;;20.62;94.96;97160.66;5114302;28;20237;-74
2022/05/24 06:20:43;;;;;;;3.43;1.60;;;;;;;20.42;96.11;97162.31;5114143;28;20213;-74
2022/05/24 06:23:09;;;;;;;2.80;1.33;;;;;;;20.09;97.91;97158.44;5113624;28;20664;-74
2022/05/24 06:25:36;;;;;;;2.60;1.40;;;;;;;19.79;100.00;97161.28;5114100;28;20214;-73
2022/05/24 06:28:04;;;;;;;1.50;1.40;;;;;;;19.51;100.00;97166.47;5113484;28;20237;-73
2022/05/24 06:30:31;;;;;;;1.40;1.30;;;;;;;19.26;100.00;97170.44;5113074;28;20248;-73
2022/05/24 06:32:57;;;;;;;1.43;1.20;;;;;;;19.10;100.00;97177.75;5113506;28;20249;-73
2022/05/24 06:35:24;;;;;;;2.47;1.37;;;;;;;18.99;100.00;97180.88;5113701;28;20308;-72
2022/05/24 06:37:53;;;;;;;4.47;1.80;;;;;;;18.93;100.00;97185.13;5110296;28;20217;-75
2022/05/24 06:40:20;;;;;;;1.40;1.20;;;;;;;18.87;100.00;97187.66;5112621;28;20232;-74
2022/05/24 06:42:47;;;;;;;1.37;1.27;;;;;;;18.73;100.00;97194.66;5112542;28;20214;-75
2022/05/24 06:45:15;;;;;;;1.43;1.33;;;;;;;18.55;100.00;97195.97;5111925;28;20222;-74
2022/05/24 06:47:42;;;;;;;1.50;1.40;;;;;;;18.35;100.00;97200.94;5107438;28;20206;-74
2022/05/24 06:50:11;;;;;;;1.50;1.40;;;;;;;18.18;100.00;97199.34;5108135;28;20261;-74
2022/05/24 06:52:37;;;;;;;3.53;1.70;;;;;;;17.95;100.00;97211.81;5109633;28;20214;-74
2022/05/24 06:55:04;;;;;;;4.90;1.60;;;;;;;17.74;100.00;97219.56;5108977;28;20581;-73
2022/05/24 06:57:31;;;;;;;1.40;1.30;;;;;;;17.67;100.00;97215.91;5109997;28;20660;-73
2022/05/24 07:02:42;;;;;;;2.27;1.40;;;;;;;17.42;100.00;97291.78;5110472;28;20682;-74
2022/05/24 07:05:12;;;;;;;2.73;0.80;;;;;;;16.43;93.47;97324.00;5111148;28;20210;-76
2022/05/24 07:07:40;;;;;;;7.90;1.80;;;;;;;15.16;100.00;97317.84;5108346;28;20228;-70
2022/05/24 07:10:09;;;;;;;3.20;1.20;;;;;;;14.47;100.00;97322.13;5110995;28;20267;-71
2022/05/24 07:12:36;;;;;;;2.30;1.00;;;;;;;14.12;100.00;97335.31;5111014;28;20220;-72
2022/05/24 07:15:03;;;;;;;2.93;1.10;;;;;;;13.98;100.00;97328.66;5111006;28;20216;-71
2022/05/24 07:17:30;;;;;;;1.63;0.80;;;;;;;13.81;100.00;97336.56;5108371;28;20220;-71
2022/05/24 07:19:58;;;;;;;0.80;0.80;;;;;;;13.76;100.00;97333.50;5110680;28;20673;-69
2022/05/24 07:22:24;;;;;;;2.00;0.70;;;;;;;13.71;100.00;97331.28;5109146;28;20212;-69
2022/05/24 07:24:51;;;;;;;1.37;0.70;;;;;;;13.75;100.00;97337.97;5109940;28;20219;-68
2022/05/24 07:27:19;;;;;;;0.97;0.73;;;;;;;13.83;100.00;97323.97;5097529;28;20207;-68
2022/05/24 07:29:46;;;;;;;1.33;0.60;;;;;;;13.92;100.00;97323.06;5095935;28;20701;-71
2022/05/24 07:32:12;;;;;;;1.33;0.77;;;;;;;13.96;100.00;97313.84;5109316;28;20215;-70
2022/05/24 07:34:40;;;;;;;1.77;0.63;;;;;;;14.03;100.00;97325.56;5109704;28;20222;-71
2022/05/24 07:37:13;;;;;;;0.80;0.60;;;;;;;14.21;100.00;97334.44;5106858;28;20341;-70
2022/05/24 07:39:40;;;;;;;1.30;0.60;;;;;;;14.49;100.00;97338.78;5096648;28;20284;-71
2022/05/24 07:47:32;;;;;;;0.93;0.63;;;;;;;15.31;100.00;97353.56;5071612;28;20211;-73
2022/05/24 07:49:58;;;;;;;1.07;0.73;;;;;;;15.49;100.00;97351.75;5109391;28;20232;-71
2022/05/24 07:52:26;;;;;;;1.27;0.60;;;;;;;15.62;100.00;97370.81;5109092;28;20224;-73
2022/05/24 07:54:52;;;;;;;0.80;0.60;;;;;;;15.70;100.00;97365.56;5106610;28;20213;-72
2022/05/24 07:57:19;;;;;;;0.80;0.70;;;;;;;15.79;100.00;97367.28;5109253;28;20216;-74
2022/05/24 07:59:47;;;;;;;2.40;0.60;;;;;;;15.83;100.00;97365.97;5109006;28;20223;-73
2022/05/24 08:02:14;;;;;;;0.83;0.60;;;;;;;15.89;100.00;97381.34;5109440;28;20304;-73
2022/05/24 08:04:41;;;;;;;0.40;0.40;;;;;;;15.98;100.00;97375.91;5106784;28;20213;-73
2022/05/24 08:07:08;;;;;;;1.60;0.50;;;;;;;16.13;100.00;97383.16;5109275;28;20576;-73
2022/05/24 08:09:36;;;;;;;6.43;0.73;;;;;;;16.30;100.00;97384.91;5109159;28;20219;-73
2022/05/24 08:12:02;;;;;;;1.57;0.67;;;;;;;16.50;100.00;97383.69;5109042;28;20210;-73
2022/05/24 08:14:29;;;;;;;0.63;0.50;;;;;;;16.65;99.61;97379.41;5108798;28;20296;-74
2022/05/24 08:16:55;;;;;;;1.03;0.50;;;;;;;16.73;97.04;97379.47;5099613;28;20221;-74
2022/05/24 08:19:22;;;;;;;0.83;0.60;;;;;;;16.77;99.63;97383.44;5112842;28;20213;-74
2022/05/24 08:21:49;;;;;;;0.77;0.60;;;;;;;16.88;98.59;97387.69;5112692;28;20221;-74
2022/05/24 08:24:16;;;;;;;0.53;0.53;;;;;;;17.04;96.31;97393.88;5110701;28;20672;-74
2022/05/24 08:26:44;;;;;;;0.93;0.60;;;;;;;17.13;93.91;97392.88;5112350;28;20303;-75
2022/05/24 08:29:10;;;;;;;0.80;0.60;;;;;;;17.13;91.53;97402.75;5106394;28;20210;-75
2022/05/24 08:31:37;;;;;;;0.50;0.50;;;;;;;17.18;91.01;97401.25;5097440;28;20244;-75
2022/05/24 08:34:03;;;;;;;0.60;0.50;;;;;;;17.28;90.57;97399.28;5099756;28;20218;-76
2022/05/24 08:36:30;;;;;;;0.57;0.50;;;;;;;17.33;90.07;97404.09;5098217;28;20213;-76
2022/05/24 08:38:56;;;;;;;0.60;0.60;;;;;;;17.36;90.95;97420.63;5097318;28;20679;-75
2022/05/24 08:41:33;;;;;;;0.40;0.40;;;;;;;17.39;90.60;97423.03;5095904;28;20297;-76
2022/05/24 08:49:57;;;;;;;1.07;0.60;;;;;;;17.69;87.88;97437.56;5060891;28;20275;-76
2022/05/24 08:52:34;;;;;;;0.90;0.60;;;;;;;17.83;88.38;97434.22;5112088;28;20217;-76
2022/05/24 08:55:00;;;;;;;0.50;0.50;;;;;;;18.13;85.97;97426.34;5112277;28;20213;-76
2022/05/24 08:57:42;;;;;;;1.20;0.60;;;;;;;18.48;81.96;97420.59;5111784;28;20745;-76
2022/05/24 09:00:14;;;;;;;1.50;0.50;;;;;;;18.75;79.52;97422.84;5111907;28;20210;-76
2022/05/24 09:02:45;;;;;;;0.50;0.40;;;;;;;18.91;77.94;97406.69;5111727;28;20246;-76
2022/05/24 09:05:18;;;;;;;1.50;0.50;;;;;;;18.85;76.40;97422.66;5112053;28;20259;-75
2022/05/24 09:07:48;;;;;;;0.63;0.50;;;;;;;18.84;76.18;97416.44;5110417;28;20249;-75
2022/05/24 09:10:20;;;;;;;0.60;0.50;;;;;;;18.82;75.71;97423.81;5114020;28;20726;-76
2022/05/24 09:13:01;;;;;;;0.57;0.50;;;;;;;19.03;75.86;97424.03;5114150;28;20229;-75
2022/05/24 09:15:37;;;;;;;0.60;0.40;;;;;;;18.99;77.41;97417.38;5113841;28;20250;-75
2022/05/24 09:18:12;;;;;;;0.80;0.50;;;;;;;19.10;76.68;97435.75;5111801;28;20213;-76
2022/05/24 09:20:41;;;;;;;1.07;0.40;;;;;;;19.17;74.24;97431.34;5111706;28;20210;-72
2022/05/24 09:23:14;;;;;;;0.83;0.67;;;;;;;19.28;69.74;97441.72;5110373;28;20206;-73
2022/05/24 09:25:53;;;;;;;1.73;0.73;;;;;;;19.37;71.92;97443.31;5110249;28;20210;-73
2022/05/24 09:28:19;;;;;;;0.40;0.40;;;;;;;19.35;70.23;97453.38;5111604;28;20228;-73
2022/05/24 09:30:47;;;;;;;0.50;0.40;;;;;;;19.30;69.76;97454.91;5111215;28;20265;-73
2022/05/24 09:33:23;;;;;;;0.70;0.40;;;;;;;19.36;64.22;97460.41;5112248;28;20206;-73
2022/05/24 09:35:53;;;;;;;0.40;0.40;;;;;;;19.43;66.51;97463.19;5113808;28;20581;-73
2022/05/24 09:38:22;;;;;;;1.10;0.70;;;;;;;19.62;65.01;97470.81;5113623;28;20562;-73
2022/05/24 09:40:54;;;;;;;1.33;0.40;;;;;;;19.32;67.26;97468.97;5113003;28;20246;-72
2022/05/24 09:43:27;;;;;;;0.70;0.70;;;;;;;18.92;68.81;97483.38;5113430;28;20246;-73
2022/05/24 09:46:03;;;;;;;0.53;0.53;;;;;;;18.56;71.83;97482.16;5113496;28;20214;-74
2022/05/24 09:48:31;;;;;;;1.03;0.70;;;;;;;18.40;74.71;97471.47;5113357;28;20216;-73
2022/05/24 09:51:00;;;;;;;0.50;0.40;;;;;;;18.68;75.97;97479.94;5110329;28;20253;-73
2022/05/24 09:53:30;;;;;;;0.40;0.40;;;;;;;18.88;69.47;97489.22;5113321;28;20253;-73
2022/05/24 09:55:59;;;;;;;1.33;0.53;;;;;;;19.09;70.04;97492.97;5113290;28;20212;-72
2022/05/24 09:58:32;;;;;;;1.13;0.60;;;;;;;19.31;69.64;97486.03;5112759;28;20245;-72
2022/05/24 10:01:03;;;;;;;0.50;0.50;;;;;;;19.37;69.26;97491.56;5111546;28;20244;-73
2022/05/24 10:03:33;;;;;;;1.00;0.50;;;;;;;19.26;63.96;97480.41;5097067;28;20206;-73
2022/05/24 10:06:08;;;;;;;0.40;0.40;;;;;;;18.99;65.16;97489.69;5109346;28;20667;-78
2022/05/24 10:08:40;;;;;;;0.67;0.60;;;;;;;18.70;69.57;97493.97;5108157;28;20216;-80
2022/05/24 10:11:16;;;;;;;0.63;0.50;;;;;;;18.49;69.45;97491.03;5110752;28;20253;-79
2022/05/24 10:13:51;;;;;;;0.50;0.50;;;;;;;18.28;71.89;97491.50;5110980;28;20210;-78
2022/05/24 10:16:27;;;;;;;1.43;0.63;;;;;;;18.12;66.41;97488.03;5109219;28;20216;-75
2022/05/24 10:19:19;;;;;;;0.93;0.50;;;;;;;18.21;65.77;97487.84;5095147;28;20213;-73
2022/05/24 10:21:52;;;;;;;1.20;0.70;;;;;;;18.13;67.93;97490.53;5104844;28;20214;-76
2022/05/24 10:24:32;;;;;;;0.73;0.53;;;;;;;18.13;69.90;97500.38;5107619;28;20667;-77
2022/05/24 10:27:04;;;;;;;0.90;0.70;;;;;;;18.28;69.74;97488.84;5108522;28;20210;-76
2022/05/24 10:29:42;;;;;;;1.67;0.70;;;;;;;18.47;69.20;97503.75;5082320;28;20289;-76
2022/05/24 10:38:18;;;;;;;0.50;0.50;;;;;;;18.99;66.61;97483.50;5109722;28;20686;-73
2022/05/24 10:40:55;;;;;;;1.30;0.70;;;;;;;19.06;60.79;97477.28;5098524;28;20308;-74
2022/05/24 10:43:41;;;;;;;1.13;0.50;;;;;;;19.26;63.12;97475.06;5109813;28;20268;-75
2022/05/24 10:46:13;;;;;;;1.50;0.53;;;;;;;19.63;62.85;97467.13;5110409;28;20218;-76
2022/05/24 10:48:48;;;;;;;1.57;0.77;;;;;;;20.04;61.54;97468.44;5112584;28;20213;-75
2022/05/24 10:51:23;;;;;;;1.53;0.57;;;;;;;20.43;55.86;97456.53;5112372;28;20237;-76
2022/05/24 10:53:54;;;;;;;1.37;0.70;;;;;;;20.46;55.74;97461.56;5110495;28;20239;-76
2022/05/24 10:56:30;;;;;;;0.63;0.43;;;;;;;20.59;59.06;97463.59;5112284;28;20245;-76
2022/05/24 10:59:01;;;;;;;1.90;0.63;;;;;;;20.53;55.01;97467.84;5112121;28;20216;-76
2022/05/24 11:01:32;;;;;;;1.70;0.50;;;;;;;20.61;55.63;97467.75;5112014;28;20571;-76
2022/05/24 11:04:06;;;;;;;0.80;0.60;;;;;;;20.65;52.77;97469.06;5112143;28;20219;-75
2022/05/24 11:06:38;;;;;;;1.13;0.50;;;;;;;20.54;58.56;97468.69;5112166;28;20558;-76
2022/05/24 11:09:09;;;;;;;0.73;0.40;;;;;;;20.56;55.11;97472.88;5112110;28;20206;-75
2022/05/24 11:11:44;;;;;;;0.70;0.50;;;;;;;20.62;56.80;97476.66;5111646;28;20269;-76
2022/05/24 11:14:16;;;;;;;0.83;0.83;;;;;;;20.44;56.17;97466.28;5111962;28;20551;-75
2022/05/24 11:16:46;;;;;;;1.37;0.60;;;;;;;20.26;55.43;97471.16;5111923;28;20213;-76
2022/05/24 11:19:15;;;;;;;0.63;0.60;;;;;;;20.17;57.34;97477.59;5111899;28;20213;-75
2022/05/24 11:21:47;;;;;;;0.77;0.50;;;;;;;20.24;54.98;97467.81;5109930;28;20222;-74
2022/05/24 11:24:19;;;;;;;0.70;0.47;;;;;;;20.34;57.81;97467.53;5111715;28;20288;-75
2022/05/24 11:26:51;;;;;;;1.03;0.50;;;;;;;20.52;57.81;97459.97;5111889;28;20217;-75
2022/05/24 11:29:23;;;;;;;1.00;0.70;;;;;;;20.79;58.81;97473.59;5104360;28;20542;-76
2022/05/24 11:31:52;;;;;;;0.70;0.60;;;;;;;21.03;50.76;97477.91;5094188;28;20235;-74
2022/05/24 11:34:25;;;;;;;0.80;0.57;;;;;;;20.77;50.96;97475.66;5094330;28;20680;-75
2022/05/24 11:37:04;;;;;;;0.70;0.57;;;;;;;20.77;52.45;97472.97;5095365;28;20680;-75
2022/05/24 11:39:34;;;;;;;0.40;0.40;;;;;;;21.02;54.13;97471.69;5094421;28;20213;-75
2022/05/24 11:42:28;;;;;;;1.27;0.60;;;;;;;21.21;53.64;97473.78;5100346;28;20214;-75
2022/05/24 11:44:57;;;;;;;0.50;0.50;;;;;;;21.34;48.06;97479.31;5095686;28;20237;-76
2022/05/24 11:47:59;;;;;;;1.03;0.60;;;;;;;21.50;49.44;97473.72;5102156;28;20221;-76
2022/05/24 11:50:43;;;;;;;0.87;0.60;;;;;;;21.60;49.64;97474.28;5108680;28;20216;-75
2022/05/24 11:53:11;;;;;;;0.53;0.50;;;;;;;21.72;48.94;97478.16;5113064;28;20601;-75
2022/05/24 11:56:18;;;;;;;0.50;0.50;;;;;;;21.71;48.85;97471.09;5113306;28;20221;-75
2022/05/24 11:58:49;;;;;;;0.63;0.50;;;;;;;21.48;51.04;97467.72;5110032;28;20279;-76
2022/05/24 12:01:36;;;;;;;1.47;0.57;;;;;;;21.21;51.65;97463.03;5113137;28;20213;-75
2022/05/24 12:10:56;;;;;;;0.80;0.70;;;;;;;20.86;53.57;97471.03;5111197;28;20219;-75
2022/05/24 12:13:30;;;;;;;0.87;0.60;;;;;;;20.79;49.11;97462.84;5110390;28;20589;-76
2022/05/24 12:16:00;;;;;;;1.17;0.70;;;;;;;20.70;51.08;97461.28;5111766;28;20562;-75